Time;durP1;ratioP1;P1;durP2;ratioP2;P2;SDS_P1;SDS_P2;PMS_P1;PMS_P2;Temp;Humidity;BMP_temperature;BMP_pressure;BME280_temperature;BME280_humidity;BME280_pressure;Samples;Min_cycle;Max_cycle;Signal;HPM_P1;HPM_P2
2022/04/13 00:01:28;;;;;;;10.95;3.58;;;13.20;99.90;;;;;;5030878;28;20053;-60
2022/04/13 00:03:53;;;;;;;13.48;3.28;;;13.20;99.90;;;;;;5030836;28;20029;-60
2022/04/13 00:06:19;;;;;;;11.90;3.50;;;13.10;99.90;;;;;;5031390;28;20226;-60
2022/04/13 00:08:44;;;;;;;10.82;3.33;;;13.10;99.90;;;;;;5031470;28;20033;-60
2022/04/13 00:11:11;;;;;;;7.43;3.63;;;13.10;99.90;;;;;;5030419;28;20030;-62
2022/04/13 00:13:36;;;;;;;8.13;3.25;;;13.00;99.90;;;;;;5031581;28;20036;-60
2022/04/13 00:16:02;;;;;;;11.32;3.38;;;13.00;99.90;;;;;;5031863;28;20041;-60
2022/04/13 00:18:28;;;;;;;9.20;3.38;;;12.90;99.90;;;;;;5028457;28;20049;-61
2022/04/13 00:20:53;;;;;;;12.52;3.17;;;12.90;99.90;;;;;;5031875;28;20450;-64
2022/04/13 00:23:19;;;;;;;9.57;3.42;;;12.90;99.90;;;;;;5034907;28;20045;-62
2022/04/13 00:25:44;;;;;;;11.40;3.25;;;12.80;99.90;;;;;;5034970;28;20037;-61
2022/04/13 00:28:10;;;;;;;8.57;3.28;;;12.80;99.90;;;;;;5035912;28;20069;-62
2022/04/13 00:30:37;;;;;;;10.57;3.67;;;12.70;99.90;;;;;;5034545;28;20037;-62
2022/04/13 00:33:03;;;;;;;17.20;3.47;;;12.70;99.90;;;;;;5035327;28;20034;-62
2022/04/13 00:35:28;;;;;;;8.85;3.60;;;12.70;99.90;;;;;;5044320;28;20044;-62
2022/04/13 00:37:54;;;;;;;11.63;4.47;;;12.60;99.90;;;;;;5050681;28;20060;-61
2022/04/13 00:40:20;;;;;;;7.97;4.03;;;12.60;99.90;;;;;;5048674;28;20046;-63
2022/04/13 00:42:46;;;;;;;11.00;4.05;;;12.60;99.90;;;;;;5048747;28;20054;-64
2022/04/13 00:45:11;;;;;;;10.63;4.35;;;12.50;99.90;;;;;;5049151;28;20021;-63
2022/04/13 00:47:39;;;;;;;10.65;4.70;;;12.60;99.90;;;;;;5048598;28;20045;-63
2022/04/13 00:50:06;;;;;;;10.93;4.68;;;12.60;99.90;;;;;;5048679;28;20509;-61
2022/04/13 00:52:35;;;;;;;12.52;4.75;;;12.50;99.90;;;;;;5044045;28;20485;-61
2022/04/13 00:55:02;;;;;;;7.55;3.90;;;12.50;99.90;;;;;;5029566;28;20037;-60
2022/04/13 00:57:32;;;;;;;15.68;4.03;;;12.50;99.90;;;;;;5029294;28;20490;-61
2022/04/13 01:00:00;;;;;;;14.07;4.67;;;12.50;99.90;;;;;;5024812;28;20025;-60
2022/04/13 01:02:28;;;;;;;10.35;4.40;;;12.40;99.90;;;;;;5027729;28;20030;-60
2022/04/13 01:04:57;;;;;;;15.32;4.47;;;12.40;99.90;;;;;;5029309;28;20034;-62
2022/04/13 01:07:24;;;;;;;12.80;4.43;;;12.40;99.90;;;;;;5029569;28;20072;-61
2022/04/13 01:09:50;;;;;;;10.60;4.43;;;12.40;99.90;;;;;;5028391;28;21022;-62
2022/04/13 01:12:16;;;;;;;8.25;4.35;;;12.40;99.90;;;;;;5028600;28;20072;-61
2022/04/13 01:14:42;;;;;;;13.77;4.60;;;12.30;99.90;;;;;;5028322;28;20049;-60
2022/04/13 01:17:07;;;;;;;9.15;4.15;;;12.30;99.90;;;;;;5028585;28;20038;-60
2022/04/13 01:19:33;;;;;;;9.68;4.30;;;12.30;99.90;;;;;;5028217;28;20049;-60
2022/04/13 01:22:03;;;;;;;11.10;4.78;;;12.20;99.90;;;;;;5007013;28;20034;-60
2022/04/13 01:24:29;;;;;;;18.60;4.68;;;12.20;99.90;;;;;;5024939;28;20490;-61
2022/04/13 01:26:55;;;;;;;13.25;5.07;;;12.20;99.90;;;;;;5024153;28;20071;-61
2022/04/13 01:29:21;;;;;;;10.35;4.15;;;12.20;99.90;;;;;;5028661;28;20045;-60
2022/04/13 01:31:48;;;;;;;9.65;4.25;;;12.20;99.90;;;;;;5027211;28;20037;-59
2022/04/13 01:34:13;;;;;;;13.95;4.57;;;12.20;99.90;;;;;;5027554;28;20033;-60
2022/04/13 01:36:39;;;;;;;9.15;4.30;;;12.20;99.90;;;;;;5027626;28;20037;-60
2022/04/13 01:39:06;;;;;;;13.82;5.15;;;12.20;99.90;;;;;;5028363;28;20045;-61
2022/04/13 01:41:32;;;;;;;15.70;4.93;;;12.20;99.90;;;;;;5026802;28;20030;-59
2022/04/13 01:43:58;;;;;;;7.90;3.63;;;12.20;99.90;;;;;;5028305;28;20037;-60
2022/04/13 01:46:24;;;;;;;12.35;4.18;;;12.20;99.90;;;;;;5028203;28;20083;-60
2022/04/13 01:48:50;;;;;;;9.68;4.57;;;12.20;99.90;;;;;;5027568;28;20033;-63
2022/04/13 01:51:17;;;;;;;17.17;4.75;;;12.20;99.90;;;;;;5027048;28;20039;-62
2022/04/13 01:53:43;;;;;;;11.27;4.63;;;12.20;99.90;;;;;;5027549;28;20414;-60
2022/04/13 01:56:08;;;;;;;10.80;5.13;;;12.20;99.90;;;;;;5027103;28;20120;-60
2022/04/13 01:58:34;;;;;;;14.00;4.05;;;12.20;99.90;;;;;;5027007;28;20120;-60
2022/04/13 02:01:00;;;;;;;12.95;4.22;;;12.30;99.90;;;;;;5027209;28;20044;-61
2022/04/13 02:03:26;;;;;;;11.57;4.75;;;12.30;99.90;;;;;;5027984;28;20671;-60
2022/04/13 02:05:55;;;;;;;9.15;4.15;;;12.30;99.90;;;;;;5023097;28;20040;-60
2022/04/13 02:08:21;;;;;;;13.55;4.75;;;12.30;99.90;;;;;;5027885;28;20034;-61
2022/04/13 02:10:47;;;;;;;11.25;4.38;;;12.30;99.90;;;;;;5026349;28;20489;-61
2022/04/13 02:13:13;;;;;;;10.55;3.92;;;12.30;99.90;;;;;;5027482;28;20048;-62
2022/04/13 02:15:39;;;;;;;9.57;3.90;;;12.30;99.90;;;;;;5026849;28;20195;-60
2022/04/13 02:18:05;;;;;;;13.63;4.10;;;12.30;99.90;;;;;;5027532;28;20553;-60
2022/04/13 02:20:31;;;;;;;15.30;4.57;;;12.30;99.90;;;;;;5026315;28;20037;-61
2022/04/13 02:22:57;;;;;;;9.73;4.15;;;12.30;99.90;;;;;;5027231;28;20041;-60
2022/04/13 02:25:23;;;;;;;17.67;5.80;;;12.30;99.90;;;;;;5027483;28;20112;-59
2022/04/13 02:27:48;;;;;;;16.75;4.95;;;12.30;99.90;;;;;;5027097;28;20021;-62
2022/04/13 02:30:15;;;;;;;12.93;4.88;;;12.30;99.90;;;;;;5026957;28;20808;-60
2022/04/13 02:32:44;;;;;;;14.23;5.18;;;12.20;99.90;;;;;;5026719;28;20087;-60
2022/04/13 02:35:10;;;;;;;12.07;4.88;;;12.20;99.90;;;;;;5026521;28;20041;-60
2022/04/13 02:37:35;;;;;;;12.65;5.97;;;12.10;99.90;;;;;;5026704;28;20033;-60
2022/04/13 02:40:01;;;;;;;9.50;4.35;;;12.10;99.90;;;;;;5026934;28;20490;-60
2022/04/13 02:42:34;;;;;;;9.82;5.18;;;12.10;99.90;;;;;;5027211;28;20406;-62
2022/04/13 02:45:00;;;;;;;15.40;5.00;;;12.00;99.90;;;;;;5026882;28;20033;-60
2022/04/13 02:47:26;;;;;;;9.95;4.95;;;12.00;99.90;;;;;;5027410;28;20037;-62
2022/04/13 02:49:52;;;;;;;16.27;5.30;;;12.00;99.90;;;;;;5026012;28;20033;-59
2022/04/13 02:52:18;;;;;;;14.18;4.90;;;12.00;99.90;;;;;;5027229;28;20371;-60
2022/04/13 02:54:43;;;;;;;12.73;5.00;;;12.00;99.90;;;;;;5026534;28;20077;-61
2022/04/13 02:57:09;;;;;;;11.75;4.25;;;12.10;99.90;;;;;;5027394;28;20033;-60
2022/04/13 02:59:35;;;;;;;10.52;4.70;;;12.10;99.90;;;;;;5027445;28;20033;-60
2022/04/13 03:02:00;;;;;;;10.80;4.72;;;12.10;99.90;;;;;;5026667;28;20180;-61
2022/04/13 03:04:26;;;;;;;10.18;4.30;;;12.10;99.90;;;;;;5023100;28;20044;-61
2022/04/13 03:06:52;;;;;;;9.55;4.18;;;12.10;99.90;;;;;;5024520;28;20033;-60
2022/04/13 03:09:17;;;;;;;16.60;5.45;;;12.10;99.90;;;;;;5031253;28;20505;-60
2022/04/13 03:11:43;;;;;;;8.68;3.80;;;12.10;99.90;;;;;;5029891;28;20305;-61
2022/04/13 03:14:08;;;;;;;11.25;4.32;;;12.10;99.90;;;;;;5031023;28;20153;-62
2022/04/13 03:16:34;;;;;;;8.35;3.97;;;12.20;99.90;;;;;;5030320;28;20667;-61
2022/04/13 03:19:00;;;;;;;17.52;4.03;;;12.20;99.90;;;;;;5030751;28;20428;-61
2022/04/13 03:21:27;;;;;;;12.15;4.20;;;12.20;99.90;;;;;;5030128;28;20033;-61
2022/04/13 03:23:52;;;;;;;11.65;4.13;;;12.20;99.90;;;;;;5030506;28;20029;-60
2022/04/13 03:26:18;;;;;;;10.93;4.15;;;12.20;99.90;;;;;;5030965;28;20494;-60
2022/04/13 03:28:44;;;;;;;14.02;3.90;;;12.20;99.90;;;;;;5030369;28;20485;-61
2022/04/13 03:31:09;;;;;;;8.50;3.65;;;12.20;99.90;;;;;;5030008;28;20386;-61
2022/04/13 03:33:35;;;;;;;10.18;3.92;;;12.10;99.90;;;;;;5029794;28;20036;-60
2022/04/13 03:36:00;;;;;;;15.00;4.60;;;12.10;99.90;;;;;;5030099;28;20033;-60
2022/04/13 03:38:26;;;;;;;11.73;3.85;;;12.10;99.90;;;;;;5030349;28;20037;-62
2022/04/13 03:40:52;;;;;;;15.77;5.07;;;12.10;99.90;;;;;;5029675;28;20129;-60
2022/04/13 03:43:18;;;;;;;14.77;4.30;;;12.10;99.90;;;;;;5030501;28;20025;-60
2022/04/13 03:45:43;;;;;;;10.05;3.40;;;12.10;99.90;;;;;;5029865;28;20034;-59
2022/04/13 03:48:09;;;;;;;11.35;3.58;;;12.10;99.90;;;;;;5030039;28;20048;-60
2022/04/13 03:50:34;;;;;;;9.15;4.32;;;12.10;99.90;;;;;;5029085;28;20127;-59
2022/04/13 03:53:00;;;;;;;7.10;3.95;;;12.10;99.90;;;;;;5030335;28;20034;-60
2022/04/13 03:55:25;;;;;;;7.35;3.35;;;12.10;99.90;;;;;;5030121;28;20033;-61
2022/04/13 03:57:52;;;;;;;11.95;4.47;;;12.10;99.90;;;;;;5029741;28;20055;-61
2022/04/13 04:00:18;;;;;;;13.02;4.05;;;12.10;99.90;;;;;;5029558;28;20536;-61
2022/04/13 04:02:44;;;;;;;8.73;4.65;;;12.00;99.90;;;;;;5029223;28;20037;-61
2022/04/13 04:05:11;;;;;;;7.75;3.85;;;12.00;99.90;;;;;;5029910;28;20087;-60
2022/04/13 04:07:37;;;;;;;9.00;3.97;;;12.00;99.90;;;;;;5029645;28;20036;-60
2022/04/13 04:10:04;;;;;;;10.90;4.00;;;12.10;99.90;;;;;;5029489;28;20041;-60
2022/04/13 04:12:36;;;;;;;13.43;5.10;;;12.10;99.90;;;;;;5029793;28;20497;-62
2022/04/13 04:15:01;;;;;;;11.13;4.35;;;12.20;99.90;;;;;;5029129;28;20140;-60
2022/04/13 04:17:27;;;;;;;8.30;3.97;;;12.20;99.90;;;;;;5029108;28;20402;-61
2022/04/13 04:19:53;;;;;;;15.23;4.63;;;12.10;99.90;;;;;;5028312;28;20049;-59
2022/04/13 04:22:18;;;;;;;6.88;3.88;;;12.20;99.90;;;;;;5029716;28;20127;-62
2022/04/13 04:24:44;;;;;;;19.40;4.10;;;12.20;99.90;;;;;;5029142;28;20037;-60
2022/04/13 04:27:10;;;;;;;7.53;4.40;;;12.20;99.90;;;;;;5029926;28;20032;-61
2022/04/13 04:29:35;;;;;;;11.95;4.10;;;12.10;99.90;;;;;;5028809;28;20033;-60
2022/04/13 04:32:02;;;;;;;16.98;5.60;;;12.20;99.90;;;;;;5027999;28;20127;-60
2022/04/13 04:34:28;;;;;;;13.32;4.88;;;12.10;99.90;;;;;;5028924;28;20033;-61
2022/04/13 04:36:53;;;;;;;8.77;4.07;;;12.20;99.90;;;;;;5028951;28;20037;-60
2022/04/13 04:39:19;;;;;;;14.60;5.03;;;12.20;99.90;;;;;;5028943;28;20539;-59
2022/04/13 04:41:45;;;;;;;11.55;4.88;;;12.20;99.90;;;;;;5027890;28;20440;-60
2022/04/13 04:44:11;;;;;;;14.45;4.90;;;12.20;99.90;;;;;;5029143;28;20047;-62
2022/04/13 04:46:37;;;;;;;10.88;5.00;;;12.20;99.90;;;;;;5028323;28;20043;-60
2022/04/13 04:49:03;;;;;;;9.73;5.00;;;12.20;99.90;;;;;;5028994;28;20041;-62
2022/04/13 04:51:31;;;;;;;16.48;5.72;;;12.20;99.90;;;;;;5028013;28;20034;-60
2022/04/13 04:54:00;;;;;;;11.35;5.60;;;12.20;99.90;;;;;;5028774;28;20048;-59
2022/04/13 04:56:26;;;;;;;9.38;5.20;;;12.30;99.90;;;;;;5028720;28;20033;-61
2022/04/13 04:58:51;;;;;;;13.85;5.15;;;12.30;99.90;;;;;;5017900;28;20045;-60
2022/04/13 05:01:18;;;;;;;13.27;5.78;;;12.20;99.90;;;;;;5025530;28;20045;-61
2022/04/13 05:03:48;;;;;;;18.15;5.63;;;12.30;99.90;;;;;;5027195;28;20036;-60
2022/04/13 05:06:18;;;;;;;;;;;12.30;99.90;;;;;;5024481;28;20394;-62
2022/04/13 05:08:43;;;;;;;12.02;4.88;;;12.30;99.90;;;;;;5025086;28;19921;-60
2022/04/13 05:11:09;;;;;;;13.45;5.28;;;12.30;99.90;;;;;;5025158;28;20103;-61
2022/04/13 05:13:35;;;;;;;13.32;5.80;;;12.30;99.90;;;;;;5024889;28;20048;-61
2022/04/13 05:16:00;;;;;;;12.48;5.97;;;12.30;99.90;;;;;;5025714;28;20090;-62
2022/04/13 05:18:26;;;;;;;16.10;5.97;;;12.30;99.90;;;;;;5023737;28;20041;-59
2022/04/13 05:20:53;;;;;;;15.88;4.85;;;12.20;99.90;;;;;;5023911;28;20428;-61
2022/04/13 05:23:18;;;;;;;16.63;5.47;;;12.20;99.90;;;;;;5023120;28;20046;-60
2022/04/13 05:25:46;;;;;;;15.32;6.40;;;12.30;99.90;;;;;;5024898;28;20049;-62
2022/04/13 05:28:12;;;;;;;13.23;5.85;;;12.30;99.90;;;;;;5023847;28;20448;-60
2022/04/13 05:30:37;;;;;;;21.17;6.15;;;12.30;99.90;;;;;;5024225;28;20033;-62
2022/04/13 05:33:03;;;;;;;14.68;6.10;;;12.40;99.90;;;;;;5025417;28;20140;-62
2022/04/13 05:35:29;;;;;;;26.77;6.07;;;12.40;99.90;;;;;;5024912;28;20041;-60
2022/04/13 05:37:55;;;;;;;15.82;7.05;;;12.50;99.90;;;;;;5024251;28;20033;-61
2022/04/13 05:40:23;;;;;;;11.55;5.47;;;12.60;99.90;;;;;;5024696;28;20036;-60
2022/04/13 05:42:50;;;;;;;13.90;6.32;;;12.70;99.90;;;;;;5024356;28;20093;-60
2022/04/13 05:45:16;;;;;;;16.80;6.82;;;12.80;99.90;;;;;;5025130;28;20076;-61
2022/04/13 05:47:43;;;;;;;15.00;6.30;;;12.90;99.90;;;;;;5023854;28;20033;-59
2022/04/13 05:50:09;;;;;;;18.58;6.75;;;13.10;99.90;;;;;;5023826;28;20485;-59
2022/04/13 05:52:36;;;;;;;10.15;5.22;;;13.10;99.90;;;;;;5024688;28;20099;-62
2022/04/13 05:55:02;;;;;;;12.07;5.30;;;13.40;99.90;;;;;;5027886;28;20482;-60
2022/04/13 05:57:27;;;;;;;11.95;5.57;;;13.80;99.90;;;;;;5025309;28;20820;-61
2022/04/13 05:59:53;;;;;;;10.07;5.60;;;14.50;99.90;;;;;;5024491;28;20038;-60
2022/04/13 06:02:19;;;;;;;11.82;5.68;;;15.20;99.90;;;;;;5024461;28;20038;-62
2022/04/13 06:04:45;;;;;;;11.77;5.13;;;15.80;99.90;;;;;;5023999;28;20033;-60
2022/04/13 06:07:10;;;;;;;11.73;5.25;;;16.30;99.90;;;;;;5025208;28;20107;-63
2022/04/13 06:09:36;;;;;;;9.05;4.53;;;16.90;99.90;;;;;;5025165;28;20124;-62
2022/04/13 06:12:02;;;;;;;13.48;4.90;;;17.10;99.90;;;;;;5023436;28;20038;-61
2022/04/13 06:14:28;;;;;;;12.27;4.03;;;17.30;99.90;;;;;;5024680;28;20075;-61
2022/04/13 06:16:53;;;;;;;13.32;4.05;;;17.50;99.90;;;;;;5022457;28;20088;-61
2022/04/13 06:19:19;;;;;;;9.65;4.50;;;17.80;99.90;;;;;;5024363;28;20053;-61
2022/04/13 06:21:44;;;;;;;11.40;4.40;;;18.30;99.90;;;;;;5023305;28;20088;-61
2022/04/13 06:24:10;;;;;;;9.50;3.53;;;18.60;99.90;;;;;;5024838;28;20041;-61
2022/04/13 06:26:36;;;;;;;10.93;4.07;;;18.90;99.90;;;;;;5023054;28;20497;-61
2022/04/13 06:29:01;;;;;;;12.57;4.53;;;19.00;99.90;;;;;;5023349;28;20045;-62
2022/04/13 06:31:27;;;;;;;9.73;3.67;;;18.70;99.90;;;;;;5022398;28;20037;-61
2022/04/13 06:33:52;;;;;;;8.23;4.57;;;18.10;99.90;;;;;;5023588;28;20036;-61
2022/04/13 06:36:19;;;;;;;8.25;3.85;;;17.80;99.90;;;;;;5024606;28;20064;-65
2022/04/13 06:38:44;;;;;;;8.32;4.38;;;17.60;99.90;;;;;;5024225;28;20044;-61
2022/04/13 06:41:11;;;;;;;9.15;4.63;;;17.70;99.90;;;;;;5022660;28;20034;-62
2022/04/13 06:43:37;;;;;;;11.50;4.57;;;17.50;99.90;;;;;;5023416;28;20434;-63
2022/04/13 06:46:03;;;;;;;11.40;4.32;;;17.40;99.90;;;;;;5024596;28;20029;-62
2022/04/13 06:48:28;;;;;;;13.10;4.88;;;17.10;99.90;;;;;;5023245;28;20528;-61
2022/04/13 06:50:54;;;;;;;16.70;4.95;;;17.00;99.90;;;;;;5023216;28;20563;-62
2022/04/13 06:53:19;;;;;;;11.93;4.90;;;16.90;99.90;;;;;;5025118;28;20493;-61
2022/04/13 06:55:47;;;;;;;12.48;4.65;;;17.00;99.90;;;;;;5023630;28;20033;-61
2022/04/13 06:58:13;;;;;;;10.82;4.00;;;17.30;99.90;;;;;;5024807;28;20044;-60
2022/04/13 07:00:39;;;;;;;13.85;4.78;;;17.70;99.90;;;;;;5023264;28;20044;-61
2022/04/13 07:03:05;;;;;;;9.35;4.25;;;18.10;99.90;;;;;;5021587;28;20053;-61
2022/04/13 07:05:31;;;;;;;11.23;4.75;;;18.30;99.90;;;;;;5024397;28;20038;-61
2022/04/13 07:07:56;;;;;;;13.90;4.38;;;17.90;99.90;;;;;;5023700;28;20029;-61
2022/04/13 07:10:22;;;;;;;10.23;3.67;;;17.50;99.90;;;;;;5022853;28;20036;-61
2022/04/13 07:12:47;;;;;;;12.95;3.42;;;17.20;99.90;;;;;;5023618;28;20041;-61
2022/04/13 07:15:17;;;;;;;13.93;4.15;;;17.20;99.90;;;;;;5023642;28;20045;-61
2022/04/13 07:17:43;;;;;;;5.55;2.42;;;17.20;99.90;;;;;;5024140;28;20126;-60
2022/04/13 07:20:10;;;;;;;6.20;2.38;;;17.20;99.90;;;;;;5023987;28;20622;-63
2022/04/13 07:22:45;;;;;;;5.10;2.40;;;17.30;99.90;;;;;;5023793;28;20171;-60
2022/04/13 07:25:12;;;;;;;8.00;2.90;;;17.40;99.90;;;;;;5023606;28;20029;-60
2022/04/13 07:27:38;;;;;;;4.72;2.40;;;17.50;99.90;;;;;;5024317;28;20037;-62
2022/04/13 07:30:04;;;;;;;9.50;2.90;;;17.40;99.90;;;;;;5024200;28;20505;-61
2022/04/13 07:32:30;;;;;;;5.13;2.53;;;17.30;99.90;;;;;;5023638;28;20072;-61
2022/04/13 07:35:00;;;;;;;6.70;2.92;;;17.20;99.90;;;;;;5024930;28;20056;-60
2022/04/13 07:37:26;;;;;;;7.65;2.60;;;17.30;99.90;;;;;;5024389;28;20030;-60
2022/04/13 07:39:53;;;;;;;10.05;2.55;;;17.20;99.90;;;;;;5023243;28;20051;-62
2022/04/13 07:42:22;;;;;;;6.05;2.42;;;17.00;99.90;;;;;;5024073;28;20048;-61
2022/04/13 07:44:48;;;;;;;7.38;2.95;;;17.00;99.90;;;;;;5022379;28;20037;-61
2022/04/13 07:47:16;;;;;;;9.18;2.92;;;17.00;99.90;;;;;;5023475;28;20087;-63
2022/04/13 07:49:43;;;;;;;9.00;3.38;;;17.10;99.90;;;;;;5024106;28;20037;-60
2022/04/13 07:52:09;;;;;;;7.40;2.65;;;17.10;99.90;;;;;;5023846;28;20048;-61
2022/04/13 07:54:35;;;;;;;7.53;3.00;;;17.20;99.90;;;;;;5026503;28;20033;-60
2022/04/13 07:57:01;;;;;;;9.07;2.40;;;17.20;99.90;;;;;;5027827;28;20037;-59
2022/04/13 07:59:27;;;;;;;13.15;2.78;;;17.20;99.90;;;;;;5027746;28;20049;-60
2022/04/13 08:01:53;;;;;;;9.25;2.47;;;17.10;99.90;;;;;;5025110;28;20099;-60
2022/04/13 08:04:19;;;;;;;8.63;2.53;;;17.20;99.90;;;;;;5028335;28;20037;-60
2022/04/13 08:06:44;;;;;;;4.78;2.08;;;17.20;99.90;;;;;;5028279;28;20037;-60
2022/04/13 08:09:10;;;;;;;8.45;2.97;;;17.30;99.90;;;;;;5028174;28;20389;-61
2022/04/13 08:11:36;;;;;;;7.47;2.35;;;17.70;99.90;;;;;;5027359;28;20053;-60
2022/04/13 08:14:01;;;;;;;11.57;3.22;;;17.90;99.90;;;;;;5027705;28;20611;-60
2022/04/13 08:16:27;;;;;;;9.85;2.95;;;17.80;99.90;;;;;;5026958;28;20786;-61
2022/04/13 08:18:52;;;;;;;7.53;2.75;;;17.80;99.90;;;;;;5026495;28;20408;-61
2022/04/13 08:21:18;;;;;;;5.88;2.50;;;17.90;99.90;;;;;;5026523;28;20132;-60
2022/04/13 08:23:43;;;;;;;5.53;2.45;;;17.70;99.90;;;;;;5027201;28;20034;-60
2022/04/13 08:26:09;;;;;;;7.95;2.75;;;17.60;99.90;;;;;;5027034;28;20072;-63
2022/04/13 08:28:34;;;;;;;11.98;2.75;;;17.50;99.90;;;;;;5027347;28;20045;-61
2022/04/13 08:31:04;;;;;;;6.10;2.80;;;17.30;99.90;;;;;;5028036;28;20038;-60
2022/04/13 08:33:30;;;;;;;6.60;2.28;;;17.20;99.90;;;;;;5025264;28;20044;-62
2022/04/13 08:35:56;;;;;;;13.07;2.33;;;16.90;99.90;;;;;;5028402;28;20029;-61
2022/04/13 08:38:21;;;;;;;13.85;2.60;;;16.90;99.90;;;;;;5028355;28;20119;-60
2022/04/13 08:40:59;;;;;;;7.82;2.90;;;16.60;99.90;;;;;;5027378;28;20057;-60
2022/04/13 08:43:32;;;;;;;8.98;2.75;;;16.40;99.90;;;;;;5026642;28;20030;-61
2022/04/13 08:46:03;;;;;;;6.60;2.20;;;16.30;99.90;;;;;;5028804;28;20033;-60
2022/04/13 08:48:30;;;;;;;5.95;1.98;;;16.30;99.90;;;;;;5029070;28;20030;-61
2022/04/13 08:51:01;;;;;;;6.93;2.33;;;16.40;99.90;;;;;;5034206;28;20029;-61
2022/04/13 08:53:31;;;;;;;12.50;2.50;;;16.40;99.90;;;;;;5039231;28;20101;-62
2022/04/13 08:55:59;;;;;;;10.07;2.60;;;16.50;99.90;;;;;;5037546;28;20018;-62
2022/04/13 08:58:28;;;;;;;7.40;2.63;;;16.60;99.90;;;;;;5040003;28;20044;-61
2022/04/13 09:00:57;;;;;;;10.75;2.40;;;16.70;99.90;;;;;;5037887;28;20041;-61
2022/04/13 09:03:46;;;;;;;11.93;3.38;;;16.70;99.90;;;;;;5042108;28;20727;-61
2022/04/13 09:06:13;;;;;;;8.20;2.55;;;16.80;99.90;;;;;;5040230;28;20232;-62
2022/04/13 09:08:58;;;;;;;8.90;2.50;;;16.90;99.90;;;;;;5038200;28;20120;-61
2022/04/13 09:11:24;;;;;;;11.55;2.40;;;16.90;99.90;;;;;;5026124;28;20084;-61
2022/04/13 09:13:51;;;;;;;8.23;2.10;;;16.90;99.90;;;;;;5025335;28;20497;-61
2022/04/13 09:16:17;;;;;;;8.57;2.60;;;16.90;99.90;;;;;;5024340;28;20037;-60
2022/04/13 09:18:43;;;;;;;6.80;1.83;;;16.90;99.90;;;;;;5026141;28;20033;-60
2022/04/13 09:21:13;;;;;;;10.40;3.05;;;17.00;99.90;;;;;;5025549;28;20501;-61
2022/04/13 09:23:39;;;;;;;10.35;2.58;;;17.00;99.90;;;;;;5024367;28;20022;-60
2022/04/13 09:26:07;;;;;;;8.75;2.05;;;17.00;99.90;;;;;;5026137;28;20037;-61
2022/04/13 09:28:33;;;;;;;10.27;2.40;;;16.90;99.90;;;;;;5026042;28;20056;-61
2022/04/13 09:30:58;;;;;;;12.40;2.03;;;16.90;99.90;;;;;;5025121;28;20616;-60
2022/04/13 09:33:25;;;;;;;11.23;2.35;;;16.90;99.90;;;;;;5025721;28;20379;-60
2022/04/13 09:35:53;;;;;;;11.35;2.22;;;16.80;99.90;;;;;;5025379;28;20040;-60
2022/04/13 09:38:19;;;;;;;7.80;2.40;;;16.80;99.90;;;;;;5024985;28;20087;-60
2022/04/13 09:40:45;;;;;;;7.57;2.03;;;16.70;99.90;;;;;;5025966;28;20793;-61
2022/04/13 09:43:15;;;;;;;5.72;2.03;;;16.60;99.90;;;;;;5028206;28;20037;-62
2022/04/13 09:45:46;;;;;;;6.38;2.35;;;16.60;99.90;;;;;;5026855;28;20036;-62
2022/04/13 09:48:23;;;;;;;11.13;2.33;;;16.50;99.90;;;;;;5028193;28;20662;-61
2022/04/13 09:50:51;;;;;;;12.60;2.75;;;16.50;99.90;;;;;;5025668;28;20039;-61
2022/04/13 09:53:19;;;;;;;9.40;2.90;;;16.60;99.90;;;;;;5025001;28;20071;-61
2022/04/13 09:55:45;;;;;;;8.55;2.78;;;16.60;99.90;;;;;;5025164;28;20132;-61
2022/04/13 09:58:17;;;;;;;8.18;1.98;;;16.70;99.90;;;;;;5024144;28;20115;-61
2022/04/13 10:00:46;;;;;;;6.45;2.00;;;16.70;99.90;;;;;;5023824;28;20485;-62
2022/04/13 10:03:13;;;;;;;11.85;3.15;;;16.80;99.90;;;;;;5025282;28;20455;-63
2022/04/13 10:05:44;;;;;;;7.57;2.35;;;16.80;99.90;;;;;;5024896;28;20033;-60
2022/04/13 10:08:11;;;;;;;;;;;16.80;99.90;;;;;;5025035;28;20136;-63
2022/04/13 10:10:41;;;;;;;11.00;2.25;;;16.80;99.90;;;;;;5023726;28;20719;-61
2022/04/13 10:13:06;;;;;;;;;;;16.80;99.90;;;;;;5026039;28;20493;-61
2022/04/13 10:15:32;;;;;;;6.05;2.53;;;16.90;99.90;;;;;;5024100;28;19932;-59
2022/04/13 10:18:01;;;;;;;9.88;3.33;;;17.00;99.90;;;;;;5025651;28;20460;-61
2022/04/13 10:20:45;;;;;;;6.45;2.70;;;17.00;99.90;;;;;;5026438;28;20036;-60
2022/04/13 10:23:11;;;;;;;6.25;2.05;;;16.90;99.90;;;;;;5026085;28;20037;-61
2022/04/13 10:25:37;;;;;;;7.78;2.00;;;16.80;99.90;;;;;;5030796;28;20029;-61
2022/04/13 10:28:03;;;;;;;7.38;2.72;;;16.70;99.90;;;;;;5027003;28;20037;-61
2022/04/13 10:30:34;;;;;;;9.98;2.47;;;16.70;99.90;;;;;;5025629;28;20037;-62
2022/04/13 10:33:11;;;;;;;7.90;3.08;;;16.70;99.90;;;;;;5029628;28;20068;-60
2022/04/13 10:35:39;;;;;;;7.65;3.08;;;16.80;99.90;;;;;;5023871;28;20144;-60
2022/04/13 10:38:05;;;;;;;9.52;3.10;;;16.80;99.90;;;;;;5024659;28;20042;-59
2022/04/13 10:40:35;;;;;;;7.90;3.42;;;16.80;99.90;;;;;;5024173;28;20120;-60
2022/04/13 10:43:05;;;;;;;10.25;3.30;;;16.90;99.90;;;;;;5024826;28;20086;-60
2022/04/13 10:45:31;;;;;;;11.10;3.28;;;16.90;99.90;;;;;;5024160;28;20038;-60
2022/04/13 10:48:09;;;;;;;10.00;2.90;;;17.00;99.90;;;;;;5025093;28;20039;-62
2022/04/13 10:50:40;;;;;;;10.10;3.60;;;17.20;99.90;;;;;;5027240;28;20132;-60
2022/04/13 10:53:12;;;;;;;9.27;2.75;;;17.30;99.90;;;;;;5028130;28;20482;-61
2022/04/13 10:55:38;;;;;;;5.88;2.78;;;17.30;99.90;;;;;;5027595;28;20069;-60
2022/04/13 10:58:14;;;;;;;6.40;3.03;;;17.20;99.90;;;;;;5027706;28;20044;-60
2022/04/13 11:00:45;;;;;;;8.60;3.08;;;17.20;99.90;;;;;;5027131;28;20140;-60
2022/04/13 11:03:11;;;;;;;12.82;4.10;;;17.20;99.90;;;;;;5026041;28;20029;-60
2022/04/13 11:05:40;;;;;;;8.52;2.97;;;17.10;99.90;;;;;;5027094;28;20033;-60
2022/04/13 11:08:21;;;;;;;9.25;3.28;;;16.80;99.90;;;;;;5027472;28;20029;-60
2022/04/13 11:10:48;;;;;;;6.85;2.83;;;16.80;99.90;;;;;;5026772;28;20033;-60
2022/04/13 11:13:19;;;;;;;10.32;3.50;;;16.80;99.90;;;;;;5026445;28;20041;-61
2022/04/13 11:15:50;;;;;;;13.98;3.65;;;16.80;99.90;;;;;;5026860;28;20083;-60
2022/04/13 11:18:20;;;;;;;9.20;2.90;;;16.70;99.90;;;;;;5027589;28;20132;-60
2022/04/13 11:21:04;;;;;;;6.95;3.33;;;16.60;99.90;;;;;;5024913;28;20068;-60
2022/04/13 11:23:55;;;;;;;9.93;2.78;;;16.60;99.90;;;;;;5021120;28;20577;-61
2022/04/13 11:26:34;;;;;;;12.20;2.92;;;16.60;99.90;;;;;;5030636;28;20030;-60
2022/04/13 11:29:16;;;;;;;5.97;2.78;;;16.60;99.90;;;;;;5028045;28;20038;-60
2022/04/13 11:32:04;;;;;;;6.13;2.53;;;16.60;99.90;;;;;;5030062;28;20719;-62
2022/04/13 11:34:50;;;;;;;7.82;3.03;;;16.40;99.90;;;;;;5028318;28;20045;-61
2022/04/13 11:37:18;;;;;;;11.52;3.22;;;16.40;99.90;;;;;;5029251;28;20029;-60
2022/04/13 11:40:03;;;;;;;7.90;2.58;;;16.50;99.90;;;;;;5030787;28;20072;-61
2022/04/13 11:42:28;;;;;;;8.75;3.67;;;16.50;99.90;;;;;;5028547;28;20230;-60
2022/04/13 11:45:11;;;;;;;8.18;3.10;;;16.50;99.90;;;;;;5030618;28;20030;-61
2022/04/13 11:47:39;;;;;;;11.13;3.08;;;16.50;99.90;;;;;;5030746;28;20033;-60
2022/04/13 11:50:20;;;;;;;8.20;3.17;;;16.50;99.90;;;;;;5029398;28;20033;-60
2022/04/13 11:52:51;;;;;;;6.95;3.00;;;16.60;99.90;;;;;;5030681;28;20730;-60
2022/04/13 11:55:31;;;;;;;10.38;2.53;;;16.70;99.90;;;;;;5031268;28;20045;-60
2022/04/13 11:58:04;;;;;;;8.15;2.88;;;16.70;99.90;;;;;;5027927;28;20041;-62
2022/04/13 12:00:41;;;;;;;5.40;2.65;;;16.80;99.90;;;;;;5030691;28;20040;-61
2022/04/13 12:03:22;;;;;;;8.68;2.95;;;16.90;99.90;;;;;;5031032;28;20552;-60
2022/04/13 12:05:52;;;;;;;8.98;3.35;;;16.80;99.90;;;;;;5027017;28;20061;-59
2022/04/13 12:08:24;;;;;;;8.40;3.25;;;16.80;99.90;;;;;;5027106;28;20040;-60
2022/04/13 12:10:54;;;;;;;8.48;3.00;;;16.80;99.90;;;;;;5022301;28;20513;-63
2022/04/13 12:13:20;;;;;;;11.55;3.25;;;16.80;99.90;;;;;;5027601;28;20445;-60
2022/04/13 12:15:49;;;;;;;13.85;3.47;;;16.80;99.90;;;;;;5030374;28;20030;-61
2022/04/13 12:18:15;;;;;;;7.57;2.97;;;16.90;99.90;;;;;;5031269;28;20038;-60
2022/04/13 12:20:41;;;;;;;10.88;3.55;;;17.00;99.90;;;;;;5029960;28;20638;-60
2022/04/13 12:23:18;;;;;;;8.13;2.63;;;16.90;99.90;;;;;;5029306;28;20030;-60
2022/04/13 12:25:51;;;;;;;9.60;2.20;;;16.90;99.90;;;;;;5030676;28;20044;-60
2022/04/13 12:28:19;;;;;;;6.05;3.47;;;17.10;99.90;;;;;;5027187;28;20516;-61
2022/04/13 12:30:55;;;;;;;8.05;3.05;;;17.30;99.90;;;;;;5029971;28;20037;-61
2022/04/13 12:33:23;;;;;;;9.23;2.60;;;17.70;99.90;;;;;;5027588;28;20584;-60
2022/04/13 12:36:00;;;;;;;6.78;2.70;;;17.90;99.90;;;;;;5026994;28;20037;-61
2022/04/13 12:38:37;;;;;;;14.32;4.25;;;18.00;99.90;;;;;;5027035;28;20115;-61
2022/04/13 12:41:09;;;;;;;8.07;2.53;;;18.00;99.90;;;;;;5029368;28;20394;-63
2022/04/13 12:43:36;;;;;;;8.20;2.30;;;18.00;99.90;;;;;;5030734;28;20129;-61
2022/04/13 12:46:12;;;;;;;7.57;2.40;;;17.80;99.90;;;;;;5031280;28;20033;-61